sensor_id;sensor_type;location;lat;lon;timestamp;temperature;humidity
57833;DHT22;43667;53.036;6.740;2023-07-31T00:00:43;15.80;99.90
57833;DHT22;43667;53.036;6.740;2023-07-31T00:03:09;15.70;99.90
57833;DHT22;43667;53.036;6.740;2023-07-31T00:05:35;15.70;99.90
57833;DHT22;43667;53.036;6.740;2023-07-31T00:08:01;15.70;99.90
57833;DHT22;43667;53.036;6.740;2023-07-31T00:10:27;15.70;99.90
57833;DHT22;43667;53.036;6.740;2023-07-31T00:12:52;15.60;99.90
57833;DHT22;43667;53.036;6.740;2023-07-31T00:15:18;15.60;99.90
57833;DHT22;43667;53.036;6.740;2023-07-31T00:17:43;15.60;99.90
57833;DHT22;43667;53.036;6.740;2023-07-31T00:20:09;15.60;99.90
57833;DHT22;43667;53.036;6.740;2023-07-31T00:22:36;15.50;99.90
57833;DHT22;43667;53.036;6.740;2023-07-31T00:25:01;15.50;99.90
57833;DHT22;43667;53.036;6.740;2023-07-31T00:27:27;15.50;99.90
57833;DHT22;43667;53.036;6.740;2023-07-31T00:29:52;15.50;99.90
57833;DHT22;43667;53.036;6.740;2023-07-31T00:32:18;15.50;99.90
57833;DHT22;43667;53.036;6.740;2023-07-31T00:34:44;15.50;99.90
57833;DHT22;43667;53.036;6.740;2023-07-31T00:37:09;15.40;99.90
57833;DHT22;43667;53.036;6.740;2023-07-31T00:39:35;15.40;99.90
57833;DHT22;43667;53.036;6.740;2023-07-31T00:42:01;15.40;99.90
57833;DHT22;43667;53.036;6.740;2023-07-31T00:44:27;15.40;99.90
57833;DHT22;43667;53.036;6.740;2023-07-31T00:46:53;15.40;99.90
57833;DHT22;43667;53.036;6.740;2023-07-31T00:49:20;15.40;99.90
57833;DHT22;43667;53.036;6.740;2023-07-31T00:51:46;15.40;99.90
57833;DHT22;43667;53.036;6.740;2023-07-31T00:54:11;15.40;99.90
57833;DHT22;43667;53.036;6.740;2023-07-31T00:56:38;15.40;99.90
57833;DHT22;43667;53.036;6.740;2023-07-31T00:59:03;15.40;99.90
57833;DHT22;43667;53.036;6.740;2023-07-31T01:01:29;15.40;99.90
57833;DHT22;43667;53.036;6.740;2023-07-31T01:03:54;15.40;99.90
57833;DHT22;43667;53.036;6.740;2023-07-31T01:06:52;15.40;99.90
57833;DHT22;43667;53.036;6.740;2023-07-31T01:09:29;15.40;99.90
57833;DHT22;43667;53.036;6.740;2023-07-31T01:12:03;15.30;99.90
57833;DHT22;43667;53.036;6.740;2023-07-31T01:14:29;15.30;99.90
57833;DHT22;43667;53.036;6.740;2023-07-31T01:16:55;15.30;99.90
57833;DHT22;43667;53.036;6.740;2023-07-31T01:19:25;15.30;99.90
57833;DHT22;43667;53.036;6.740;2023-07-31T01:25:16;15.30;99.90
57833;DHT22;43667;53.036;6.740;2023-07-31T01:28:10;15.30;99.90
57833;DHT22;43667;53.036;6.740;2023-07-31T01:30:41;15.30;99.90
57833;DHT22;43667;53.036;6.740;2023-07-31T01:33:09;15.30;99.90
57833;DHT22;43667;53.036;6.740;2023-07-31T01:35:35;15.30;99.90
57833;DHT22;43667;53.036;6.740;2023-07-31T01:38:01;15.30;99.90
57833;DHT22;43667;53.036;6.740;2023-07-31T01:40:27;15.20;99.90
57833;DHT22;43667;53.036;6.740;2023-07-31T01:42:52;15.20;99.90
57833;DHT22;43667;53.036;6.740;2023-07-31T01:45:18;15.20;99.90
57833;DHT22;43667;53.036;6.740;2023-07-31T01:47:43;15.20;99.90
57833;DHT22;43667;53.036;6.740;2023-07-31T01:50:09;15.20;99.90
57833;DHT22;43667;53.036;6.740;2023-07-31T01:52:35;15.20;99.90
57833;DHT22;43667;53.036;6.740;2023-07-31T01:55:01;15.20;99.90
57833;DHT22;43667;53.036;6.740;2023-07-31T01:57:26;15.20;99.90
57833;DHT22;43667;53.036;6.740;2023-07-31T01:59:52;15.20;99.90
57833;DHT22;43667;53.036;6.740;2023-07-31T02:02:19;15.20;99.90
57833;DHT22;43667;53.036;6.740;2023-07-31T02:04:45;15.20;99.90
57833;DHT22;43667;53.036;6.740;2023-07-31T02:07:11;15.20;99.90
57833;DHT22;43667;53.036;6.740;2023-07-31T02:09:36;15.20;99.90
57833;DHT22;43667;53.036;6.740;2023-07-31T02:12:02;15.20;99.90
57833;DHT22;43667;53.036;6.740;2023-07-31T02:14:27;15.20;99.90
57833;DHT22;43667;53.036;6.740;2023-07-31T02:16:53;15.20;99.90
57833;DHT22;43667;53.036;6.740;2023-07-31T02:19:19;15.20;99.90
57833;DHT22;43667;53.036;6.740;2023-07-31T02:21:44;15.20;99.90
57833;DHT22;43667;53.036;6.740;2023-07-31T02:24:10;15.20;99.90
57833;DHT22;43667;53.036;6.740;2023-07-31T02:26:35;15.20;99.90
57833;DHT22;43667;53.036;6.740;2023-07-31T02:29:01;15.20;99.90
57833;DHT22;43667;53.036;6.740;2023-07-31T02:31:27;15.20;99.90
57833;DHT22;43667;53.036;6.740;2023-07-31T02:33:52;15.20;99.90
57833;DHT22;43667;53.036;6.740;2023-07-31T02:36:18;15.20;99.90
57833;DHT22;43667;53.036;6.740;2023-07-31T02:38:44;15.20;99.90
57833;DHT22;43667;53.036;6.740;2023-07-31T02:41:09;15.20;99.90
57833;DHT22;43667;53.036;6.740;2023-07-31T02:43:35;15.20;99.90
57833;DHT22;43667;53.036;6.740;2023-07-31T02:46:01;15.20;99.90
57833;DHT22;43667;53.036;6.740;2023-07-31T02:48:26;15.20;99.90
57833;DHT22;43667;53.036;6.740;2023-07-31T02:50:52;15.20;99.90
57833;DHT22;43667;53.036;6.740;2023-07-31T02:53:18;15.20;99.90
57833;DHT22;43667;53.036;6.740;2023-07-31T02:55:44;15.20;99.90
57833;DHT22;43667;53.036;6.740;2023-07-31T02:58:09;15.20;99.90
57833;DHT22;43667;53.036;6.740;2023-07-31T03:00:35;15.20;99.90
57833;DHT22;43667;53.036;6.740;2023-07-31T03:03:00;15.20;99.90
57833;DHT22;43667;53.036;6.740;2023-07-31T03:05:26;15.20;99.90
57833;DHT22;43667;53.036;6.740;2023-07-31T03:07:51;15.20;99.90
57833;DHT22;43667;53.036;6.740;2023-07-31T03:10:17;15.20;99.90
57833;DHT22;43667;53.036;6.740;2023-07-31T03:12:46;15.20;99.90
57833;DHT22;43667;53.036;6.740;2023-07-31T03:15:12;15.30;99.90
57833;DHT22;43667;53.036;6.740;2023-07-31T03:17:37;15.20;99.90
57833;DHT22;43667;53.036;6.740;2023-07-31T03:20:03;15.30;99.90
57833;DHT22;43667;53.036;6.740;2023-07-31T03:22:29;15.30;99.90
57833;DHT22;43667;53.036;6.740;2023-07-31T03:24:54;15.30;99.90
57833;DHT22;43667;53.036;6.740;2023-07-31T03:27:20;15.30;99.90
57833;DHT22;43667;53.036;6.740;2023-07-31T03:29:46;15.30;99.90
57833;DHT22;43667;53.036;6.740;2023-07-31T03:32:11;15.30;99.90
57833;DHT22;43667;53.036;6.740;2023-07-31T03:34:37;15.30;99.90
57833;DHT22;43667;53.036;6.740;2023-07-31T03:37:03;15.40;99.90
57833;DHT22;43667;53.036;6.740;2023-07-31T03:39:30;15.40;99.90
57833;DHT22;43667;53.036;6.740;2023-07-31T03:41:56;15.40;99.90
57833;DHT22;43667;53.036;6.740;2023-07-31T03:44:21;15.40;99.90
57833;DHT22;43667;53.036;6.740;2023-07-31T03:46:47;15.40;99.90
57833;DHT22;43667;53.036;6.740;2023-07-31T03:49:12;15.40;99.90
57833;DHT22;43667;53.036;6.740;2023-07-31T03:51:38;15.40;99.90
57833;DHT22;43667;53.036;6.740;2023-07-31T03:54:03;15.40;99.90
57833;DHT22;43667;53.036;6.740;2023-07-31T03:56:29;15.40;99.90
57833;DHT22;43667;53.036;6.740;2023-07-31T03:58:55;15.40;99.90
57833;DHT22;43667;53.036;6.740;2023-07-31T04:01:20;15.40;99.90
57833;DHT22;43667;53.036;6.740;2023-07-31T04:03:46;15.50;99.90
57833;DHT22;43667;53.036;6.740;2023-07-31T04:06:11;15.50;99.90
57833;DHT22;43667;53.036;6.740;2023-07-31T04:08:37;15.50;99.90
57833;DHT22;43667;53.036;6.740;2023-07-31T04:11:02;15.50;99.90
57833;DHT22;43667;53.036;6.740;2023-07-31T04:13:29;15.50;99.90
57833;DHT22;43667;53.036;6.740;2023-07-31T04:15:55;15.50;99.90
57833;DHT22;43667;53.036;6.740;2023-07-31T04:18:21;15.50;99.90
57833;DHT22;43667;53.036;6.740;2023-07-31T04:20:46;15.50;99.90
57833;DHT22;43667;53.036;6.740;2023-07-31T04:23:12;15.60;99.90
57833;DHT22;43667;53.036;6.740;2023-07-31T04:25:38;15.50;99.90
57833;DHT22;43667;53.036;6.740;2023-07-31T04:28:03;15.60;99.90
57833;DHT22;43667;53.036;6.740;2023-07-31T04:30:29;15.60;99.90
57833;DHT22;43667;53.036;6.740;2023-07-31T04:32:55;15.60;99.90
57833;DHT22;43667;53.036;6.740;2023-07-31T04:35:20;15.60;99.90
57833;DHT22;43667;53.036;6.740;2023-07-31T04:37:46;15.60;99.90
57833;DHT22;43667;53.036;6.740;2023-07-31T04:40:15;15.60;99.90
57833;DHT22;43667;53.036;6.740;2023-07-31T04:42:41;15.60;99.90
57833;DHT22;43667;53.036;6.740;2023-07-31T04:45:09;15.60;99.90
57833;DHT22;43667;53.036;6.740;2023-07-31T04:47:34;15.70;99.90
57833;DHT22;43667;53.036;6.740;2023-07-31T04:50:00;15.60;99.90
57833;DHT22;43667;53.036;6.740;2023-07-31T04:52:25;15.70;99.90
57833;DHT22;43667;53.036;6.740;2023-07-31T04:54:51;15.60;99.90
57833;DHT22;43667;53.036;6.740;2023-07-31T04:57:17;15.70;99.90
57833;DHT22;43667;53.036;6.740;2023-07-31T04:59:42;15.70;99.90
57833;DHT22;43667;53.036;6.740;2023-07-31T05:02:08;15.70;99.90
57833;DHT22;43667;53.036;6.740;2023-07-31T05:04:34;15.70;99.90
57833;DHT22;43667;53.036;6.740;2023-07-31T05:06:59;15.70;99.90
57833;DHT22;43667;53.036;6.740;2023-07-31T05:09:25;15.70;99.90
57833;DHT22;43667;53.036;6.740;2023-07-31T05:11:50;15.70;99.90
57833;DHT22;43667;53.036;6.740;2023-07-31T05:14:16;15.70;99.90
57833;DHT22;43667;53.036;6.740;2023-07-31T05:16:41;15.70;99.90
57833;DHT22;43667;53.036;6.740;2023-07-31T05:19:07;15.70;99.90
57833;DHT22;43667;53.036;6.740;2023-07-31T05:21:33;15.70;99.90
57833;DHT22;43667;53.036;6.740;2023-07-31T05:23:58;15.70;99.90
57833;DHT22;43667;53.036;6.740;2023-07-31T05:26:24;15.80;99.90
57833;DHT22;43667;53.036;6.740;2023-07-31T05:28:50;15.80;99.90
57833;DHT22;43667;53.036;6.740;2023-07-31T05:31:15;15.70;99.90
57833;DHT22;43667;53.036;6.740;2023-07-31T05:33:41;15.70;99.90
57833;DHT22;43667;53.036;6.740;2023-07-31T05:36:07;15.70;99.90
57833;DHT22;43667;53.036;6.740;2023-07-31T05:38:32;15.80;99.90
57833;DHT22;43667;53.036;6.740;2023-07-31T05:40:58;15.80;99.90
57833;DHT22;43667;53.036;6.740;2023-07-31T05:43:23;15.80;99.90
57833;DHT22;43667;53.036;6.740;2023-07-31T05:45:49;15.80;99.90
57833;DHT22;43667;53.036;6.740;2023-07-31T05:48:14;15.80;99.90
57833;DHT22;43667;53.036;6.740;2023-07-31T05:50:40;15.90;99.90
57833;DHT22;43667;53.036;6.740;2023-07-31T05:53:06;15.90;99.90
57833;DHT22;43667;53.036;6.740;2023-07-31T05:55:33;15.90;99.90
57833;DHT22;43667;53.036;6.740;2023-07-31T05:57:59;16.00;99.90
57833;DHT22;43667;53.036;6.740;2023-07-31T06:00:24;16.00;99.90
57833;DHT22;43667;53.036;6.740;2023-07-31T06:02:50;16.10;99.90
57833;DHT22;43667;53.036;6.740;2023-07-31T06:05:16;16.10;99.90
57833;DHT22;43667;53.036;6.740;2023-07-31T06:07:43;16.20;99.90
57833;DHT22;43667;53.036;6.740;2023-07-31T06:10:08;16.20;99.90
57833;DHT22;43667;53.036;6.740;2023-07-31T06:12:35;16.30;99.90
57833;DHT22;43667;53.036;6.740;2023-07-31T06:15:02;16.30;99.90
57833;DHT22;43667;53.036;6.740;2023-07-31T06:17:28;16.30;99.90
57833;DHT22;43667;53.036;6.740;2023-07-31T06:19:54;16.30;99.90
57833;DHT22;43667;53.036;6.740;2023-07-31T06:22:20;16.30;99.90
57833;DHT22;43667;53.036;6.740;2023-07-31T06:24:46;16.40;99.90
57833;DHT22;43667;53.036;6.740;2023-07-31T06:27:12;16.40;99.90
57833;DHT22;43667;53.036;6.740;2023-07-31T06:29:37;16.50;99.90
57833;DHT22;43667;53.036;6.740;2023-07-31T06:32:03;16.50;99.90
57833;DHT22;43667;53.036;6.740;2023-07-31T06:34:29;16.60;99.90
57833;DHT22;43667;53.036;6.740;2023-07-31T06:36:56;16.60;99.90
57833;DHT22;43667;53.036;6.740;2023-07-31T06:39:21;16.70;99.90
57833;DHT22;43667;53.036;6.740;2023-07-31T06:41:47;16.70;99.90
57833;DHT22;43667;53.036;6.740;2023-07-31T06:44:13;16.70;99.90
57833;DHT22;43667;53.036;6.740;2023-07-31T06:46:40;16.80;99.90
57833;DHT22;43667;53.036;6.740;2023-07-31T06:49:05;16.80;99.90
57833;DHT22;43667;53.036;6.740;2023-07-31T06:51:31;16.80;99.90
57833;DHT22;43667;53.036;6.740;2023-07-31T06:53:57;16.80;99.90
57833;DHT22;43667;53.036;6.740;2023-07-31T06:56:23;16.90;99.90
57833;DHT22;43667;53.036;6.740;2023-07-31T06:58:49;16.90;99.90
57833;DHT22;43667;53.036;6.740;2023-07-31T07:01:15;17.00;99.90
57833;DHT22;43667;53.036;6.740;2023-07-31T07:03:40;17.10;99.90
57833;DHT22;43667;53.036;6.740;2023-07-31T07:06:06;17.10;99.90
57833;DHT22;43667;53.036;6.740;2023-07-31T07:08:32;17.10;99.90
57833;DHT22;43667;53.036;6.740;2023-07-31T07:10:58;17.10;99.90
57833;DHT22;43667;53.036;6.740;2023-07-31T07:13:23;17.10;99.90
57833;DHT22;43667;53.036;6.740;2023-07-31T07:15:49;17.10;99.90
57833;DHT22;43667;53.036;6.740;2023-07-31T07:18:16;17.10;99.90
57833;DHT22;43667;53.036;6.740;2023-07-31T07:20:52;17.10;99.90
57833;DHT22;43667;53.036;6.740;2023-07-31T07:23:18;17.10;99.90
57833;DHT22;43667;53.036;6.740;2023-07-31T07:25:45;17.00;99.90
57833;DHT22;43667;53.036;6.740;2023-07-31T07:28:11;17.00;99.90
57833;DHT22;43667;53.036;6.740;2023-07-31T07:30:37;16.90;99.90
57833;DHT22;43667;53.036;6.740;2023-07-31T07:33:02;16.90;99.90
57833;DHT22;43667;53.036;6.740;2023-07-31T07:35:28;17.00;99.90
57833;DHT22;43667;53.036;6.740;2023-07-31T07:37:56;17.00;99.90
57833;DHT22;43667;53.036;6.740;2023-07-31T07:40:22;17.00;99.90
57833;DHT22;43667;53.036;6.740;2023-07-31T07:42:47;17.00;99.90
57833;DHT22;43667;53.036;6.740;2023-07-31T07:45:13;17.00;99.90
57833;DHT22;43667;53.036;6.740;2023-07-31T07:47:41;17.10;99.90
57833;DHT22;43667;53.036;6.740;2023-07-31T07:50:07;17.10;99.90
57833;DHT22;43667;53.036;6.740;2023-07-31T07:52:32;17.20;99.90
57833;DHT22;43667;53.036;6.740;2023-07-31T07:54:58;17.20;99.90
57833;DHT22;43667;53.036;6.740;2023-07-31T07:57:24;17.20;99.90
57833;DHT22;43667;53.036;6.740;2023-07-31T07:59:49;17.20;99.90
57833;DHT22;43667;53.036;6.740;2023-07-31T08:02:15;17.20;99.90
57833;DHT22;43667;53.036;6.740;2023-07-31T08:04:40;17.20;99.90
57833;DHT22;43667;53.036;6.740;2023-07-31T08:07:06;17.10;99.90
57833;DHT22;43667;53.036;6.740;2023-07-31T08:09:31;17.10;99.90
57833;DHT22;43667;53.036;6.740;2023-07-31T08:11:57;17.10;99.90
57833;DHT22;43667;53.036;6.740;2023-07-31T08:14:27;17.10;99.90
57833;DHT22;43667;53.036;6.740;2023-07-31T08:16:53;17.10;99.90
57833;DHT22;43667;53.036;6.740;2023-07-31T08:19:18;17.00;99.90
57833;DHT22;43667;53.036;6.740;2023-07-31T08:21:44;17.10;99.90
57833;DHT22;43667;53.036;6.740;2023-07-31T08:24:10;17.10;99.90
57833;DHT22;43667;53.036;6.740;2023-07-31T08:26:35;17.10;99.90
57833;DHT22;43667;53.036;6.740;2023-07-31T08:29:01;17.10;99.90
57833;DHT22;43667;53.036;6.740;2023-07-31T08:31:26;17.20;99.90
57833;DHT22;43667;53.036;6.740;2023-07-31T08:33:52;17.20;99.90
57833;DHT22;43667;53.036;6.740;2023-07-31T08:36:18;17.20;99.90
57833;DHT22;43667;53.036;6.740;2023-07-31T08:38:45;17.20;99.90
57833;DHT22;43667;53.036;6.740;2023-07-31T08:41:10;17.20;99.90
57833;DHT22;43667;53.036;6.740;2023-07-31T08:43:38;17.20;99.90
57833;DHT22;43667;53.036;6.740;2023-07-31T08:46:03;17.30;99.90
57833;DHT22;43667;53.036;6.740;2023-07-31T08:48:31;17.30;99.90
57833;DHT22;43667;53.036;6.740;2023-07-31T08:50:57;17.40;99.90
57833;DHT22;43667;53.036;6.740;2023-07-31T08:53:23;17.40;99.90
57833;DHT22;43667;53.036;6.740;2023-07-31T08:55:50;17.50;99.90
57833;DHT22;43667;53.036;6.740;2023-07-31T08:58:18;17.50;99.90
57833;DHT22;43667;53.036;6.740;2023-07-31T09:00:46;17.60;99.90
57833;DHT22;43667;53.036;6.740;2023-07-31T09:03:17;17.70;99.90
57833;DHT22;43667;53.036;6.740;2023-07-31T09:05:45;17.80;99.90
57833;DHT22;43667;53.036;6.740;2023-07-31T09:08:13;17.80;99.90
57833;DHT22;43667;53.036;6.740;2023-07-31T09:10:43;17.90;99.90
57833;DHT22;43667;53.036;6.740;2023-07-31T09:13:11;17.90;99.90
57833;DHT22;43667;53.036;6.740;2023-07-31T09:15:37;18.00;99.90
57833;DHT22;43667;53.036;6.740;2023-07-31T09:18:04;18.00;99.90
57833;DHT22;43667;53.036;6.740;2023-07-31T09:20:30;18.10;99.90
57833;DHT22;43667;53.036;6.740;2023-07-31T09:25:33;18.20;99.90
57833;DHT22;43667;53.036;6.740;2023-07-31T09:28:00;18.30;99.90
57833;DHT22;43667;53.036;6.740;2023-07-31T09:30:26;18.30;99.90
57833;DHT22;43667;53.036;6.740;2023-07-31T09:33:01;18.30;99.90
57833;DHT22;43667;53.036;6.740;2023-07-31T09:35:31;18.30;99.90
57833;DHT22;43667;53.036;6.740;2023-07-31T09:38:05;18.20;99.90
57833;DHT22;43667;53.036;6.740;2023-07-31T09:40:38;18.10;99.90
57833;DHT22;43667;53.036;6.740;2023-07-31T09:43:05;18.10;99.90
57833;DHT22;43667;53.036;6.740;2023-07-31T09:45:37;18.10;99.90
57833;DHT22;43667;53.036;6.740;2023-07-31T09:48:06;18.10;99.90
57833;DHT22;43667;53.036;6.740;2023-07-31T09:50:32;18.10;99.90
57833;DHT22;43667;53.036;6.740;2023-07-31T09:52:57;18.20;99.90
57833;DHT22;43667;53.036;6.740;2023-07-31T09:55:24;18.30;99.90
57833;DHT22;43667;53.036;6.740;2023-07-31T09:57:50;18.30;99.90
57833;DHT22;43667;53.036;6.740;2023-07-31T10:00:17;18.40;99.90
57833;DHT22;43667;53.036;6.740;2023-07-31T10:02:45;18.40;99.90
57833;DHT22;43667;53.036;6.740;2023-07-31T10:05:14;18.50;99.90
57833;DHT22;43667;53.036;6.740;2023-07-31T10:07:43;18.40;99.90
57833;DHT22;43667;53.036;6.740;2023-07-31T10:10:09;18.50;99.90
57833;DHT22;43667;53.036;6.740;2023-07-31T10:12:35;18.50;99.90
57833;DHT22;43667;53.036;6.740;2023-07-31T10:15:02;18.50;99.90
57833;DHT22;43667;53.036;6.740;2023-07-31T10:17:29;18.50;99.90
57833;DHT22;43667;53.036;6.740;2023-07-31T10:19:58;18.60;99.90
57833;DHT22;43667;53.036;6.740;2023-07-31T10:22:25;18.60;99.90
57833;DHT22;43667;53.036;6.740;2023-07-31T10:24:52;18.60;99.90
57833;DHT22;43667;53.036;6.740;2023-07-31T10:27:19;18.60;99.90
57833;DHT22;43667;53.036;6.740;2023-07-31T10:29:45;18.60;99.90
57833;DHT22;43667;53.036;6.740;2023-07-31T10:32:14;18.60;99.90
57833;DHT22;43667;53.036;6.740;2023-07-31T10:34:41;18.60;99.90
57833;DHT22;43667;53.036;6.740;2023-07-31T10:37:29;18.70;99.90
57833;DHT22;43667;53.036;6.740;2023-07-31T10:42:28;18.90;99.90
57833;DHT22;43667;53.036;6.740;2023-07-31T10:44:59;19.00;99.90
57833;DHT22;43667;53.036;6.740;2023-07-31T10:47:25;19.20;99.90
57833;DHT22;43667;53.036;6.740;2023-07-31T10:49:51;19.30;99.90
57833;DHT22;43667;53.036;6.740;2023-07-31T10:52:21;19.40;99.90
57833;DHT22;43667;53.036;6.740;2023-07-31T10:55:15;19.70;99.90
57833;DHT22;43667;53.036;6.740;2023-07-31T10:57:46;19.80;99.90
57833;DHT22;43667;53.036;6.740;2023-07-31T11:00:27;19.90;99.90
57833;DHT22;43667;53.036;6.740;2023-07-31T11:08:27;20.00;99.90
57833;DHT22;43667;53.036;6.740;2023-07-31T11:13:32;20.00;99.90
57833;DHT22;43667;53.036;6.740;2023-07-31T11:15:59;20.00;99.90
57833;DHT22;43667;53.036;6.740;2023-07-31T11:18:26;20.00;99.90
57833;DHT22;43667;53.036;6.740;2023-07-31T11:20:53;20.00;99.90
57833;DHT22;43667;53.036;6.740;2023-07-31T11:23:19;20.10;99.90
57833;DHT22;43667;53.036;6.740;2023-07-31T11:25:45;20.20;99.90
57833;DHT22;43667;53.036;6.740;2023-07-31T11:28:13;20.20;99.90
57833;DHT22;43667;53.036;6.740;2023-07-31T11:30:40;20.30;99.90
57833;DHT22;43667;53.036;6.740;2023-07-31T11:33:08;20.20;99.90
57833;DHT22;43667;53.036;6.740;2023-07-31T11:35:35;20.20;99.90
57833;DHT22;43667;53.036;6.740;2023-07-31T11:38:02;20.10;99.90
57833;DHT22;43667;53.036;6.740;2023-07-31T11:40:28;20.20;99.90
57833;DHT22;43667;53.036;6.740;2023-07-31T11:42:58;20.20;99.90
57833;DHT22;43667;53.036;6.740;2023-07-31T11:45:27;20.20;99.90
57833;DHT22;43667;53.036;6.740;2023-07-31T11:47:56;20.20;99.90
57833;DHT22;43667;53.036;6.740;2023-07-31T11:50:23;20.10;99.90
57833;DHT22;43667;53.036;6.740;2023-07-31T11:52:54;20.10;99.90
57833;DHT22;43667;53.036;6.740;2023-07-31T11:55:22;20.10;99.90
57833;DHT22;43667;53.036;6.740;2023-07-31T11:57:48;20.10;99.90
57833;DHT22;43667;53.036;6.740;2023-07-31T12:00:14;20.00;99.90
57833;DHT22;43667;53.036;6.740;2023-07-31T12:02:41;20.00;99.90
57833;DHT22;43667;53.036;6.740;2023-07-31T12:05:11;20.00;99.90
57833;DHT22;43667;53.036;6.740;2023-07-31T12:07:48;20.10;99.90
57833;DHT22;43667;53.036;6.740;2023-07-31T12:10:30;20.10;99.90
57833;DHT22;43667;53.036;6.740;2023-07-31T12:15:42;20.40;99.90
57833;DHT22;43667;53.036;6.740;2023-07-31T12:18:19;20.50;99.90
57833;DHT22;43667;53.036;6.740;2023-07-31T12:20:47;20.50;99.90
57833;DHT22;43667;53.036;6.740;2023-07-31T12:23:16;20.60;99.90
57833;DHT22;43667;53.036;6.740;2023-07-31T12:25:42;20.60;99.90
57833;DHT22;43667;53.036;6.740;2023-07-31T12:28:08;20.60;99.90
57833;DHT22;43667;53.036;6.740;2023-07-31T12:30:43;20.50;99.90
57833;DHT22;43667;53.036;6.740;2023-07-31T12:33:14;20.40;99.90
57833;DHT22;43667;53.036;6.740;2023-07-31T12:35:43;20.30;99.90
57833;DHT22;43667;53.036;6.740;2023-07-31T12:38:09;20.20;99.90
57833;DHT22;43667;53.036;6.740;2023-07-31T12:40:40;20.10;99.90
57833;DHT22;43667;53.036;6.740;2023-07-31T12:43:06;20.00;99.90
57833;DHT22;43667;53.036;6.740;2023-07-31T12:45:32;20.00;99.90
57833;DHT22;43667;53.036;6.740;2023-07-31T12:47:59;19.80;99.90
57833;DHT22;43667;53.036;6.740;2023-07-31T12:50:26;19.70;99.90
57833;DHT22;43667;53.036;6.740;2023-07-31T12:52:53;19.60;99.90
57833;DHT22;43667;53.036;6.740;2023-07-31T12:55:19;19.50;99.90
57833;DHT22;43667;53.036;6.740;2023-07-31T12:57:45;19.50;99.90
57833;DHT22;43667;53.036;6.740;2023-07-31T13:00:11;19.50;99.90
57833;DHT22;43667;53.036;6.740;2023-07-31T13:02:38;19.50;99.90
57833;DHT22;43667;53.036;6.740;2023-07-31T13:05:04;19.60;99.90
57833;DHT22;43667;53.036;6.740;2023-07-31T13:07:29;19.60;99.90
57833;DHT22;43667;53.036;6.740;2023-07-31T13:09:55;19.60;99.90
57833;DHT22;43667;53.036;6.740;2023-07-31T13:12:21;19.60;99.90
57833;DHT22;43667;53.036;6.740;2023-07-31T13:14:46;19.60;99.90
57833;DHT22;43667;53.036;6.740;2023-07-31T13:17:12;19.60;99.90
57833;DHT22;43667;53.036;6.740;2023-07-31T13:19:37;19.60;99.90
57833;DHT22;43667;53.036;6.740;2023-07-31T13:22:03;19.60;99.90
57833;DHT22;43667;53.036;6.740;2023-07-31T13:24:29;19.70;99.90
57833;DHT22;43667;53.036;6.740;2023-07-31T13:26:56;19.70;99.90
57833;DHT22;43667;53.036;6.740;2023-07-31T13:29:21;19.80;99.90
57833;DHT22;43667;53.036;6.740;2023-07-31T13:31:47;19.80;99.90
57833;DHT22;43667;53.036;6.740;2023-07-31T13:34:13;19.80;99.90
57833;DHT22;43667;53.036;6.740;2023-07-31T13:36:38;19.80;99.90
57833;DHT22;43667;53.036;6.740;2023-07-31T13:39:04;19.70;99.90
57833;DHT22;43667;53.036;6.740;2023-07-31T13:41:30;19.70;99.90
57833;DHT22;43667;53.036;6.740;2023-07-31T13:43:55;19.70;99.90
57833;DHT22;43667;53.036;6.740;2023-07-31T13:46:21;19.80;99.90
57833;DHT22;43667;53.036;6.740;2023-07-31T13:48:46;19.80;99.90
57833;DHT22;43667;53.036;6.740;2023-07-31T13:51:12;19.90;99.90
57833;DHT22;43667;53.036;6.740;2023-07-31T13:53:37;19.90;99.90
57833;DHT22;43667;53.036;6.740;2023-07-31T13:56:03;20.00;99.90
57833;DHT22;43667;53.036;6.740;2023-07-31T13:58:28;20.00;99.90
57833;DHT22;43667;53.036;6.740;2023-07-31T14:00:54;20.00;99.90
57833;DHT22;43667;53.036;6.740;2023-07-31T14:03:20;20.00;99.90
57833;DHT22;43667;53.036;6.740;2023-07-31T14:05:45;20.10;99.90
57833;DHT22;43667;53.036;6.740;2023-07-31T14:08:11;20.20;99.90
57833;DHT22;43667;53.036;6.740;2023-07-31T14:10:36;20.30;99.90
57833;DHT22;43667;53.036;6.740;2023-07-31T14:13:02;20.40;99.90
57833;DHT22;43667;53.036;6.740;2023-07-31T14:15:28;20.50;99.90
57833;DHT22;43667;53.036;6.740;2023-07-31T14:17:53;20.70;99.90
57833;DHT22;43667;53.036;6.740;2023-07-31T14:20:19;20.80;99.90
57833;DHT22;43667;53.036;6.740;2023-07-31T14:22:45;20.90;99.90
57833;DHT22;43667;53.036;6.740;2023-07-31T14:25:10;20.90;99.90
57833;DHT22;43667;53.036;6.740;2023-07-31T14:27:36;20.80;99.90
57833;DHT22;43667;53.036;6.740;2023-07-31T14:30:03;20.80;99.90
57833;DHT22;43667;53.036;6.740;2023-07-31T14:32:29;20.80;99.90
57833;DHT22;43667;53.036;6.740;2023-07-31T14:34:54;20.80;99.90
57833;DHT22;43667;53.036;6.740;2023-07-31T14:37:20;20.80;99.90
57833;DHT22;43667;53.036;6.740;2023-07-31T14:39:46;20.70;99.90
57833;DHT22;43667;53.036;6.740;2023-07-31T14:42:11;20.70;99.90
57833;DHT22;43667;53.036;6.740;2023-07-31T14:44:37;20.70;99.90
57833;DHT22;43667;53.036;6.740;2023-07-31T14:47:03;20.70;99.90
57833;DHT22;43667;53.036;6.740;2023-07-31T14:49:28;20.70;99.90
57833;DHT22;43667;53.036;6.740;2023-07-31T14:51:54;20.70;99.90
57833;DHT22;43667;53.036;6.740;2023-07-31T14:54:20;20.70;99.90
57833;DHT22;43667;53.036;6.740;2023-07-31T14:56:45;20.70;99.90
57833;DHT22;43667;53.036;6.740;2023-07-31T14:59:11;20.60;99.90
57833;DHT22;43667;53.036;6.740;2023-07-31T15:01:37;20.60;99.90
57833;DHT22;43667;53.036;6.740;2023-07-31T15:04:03;20.50;99.90
57833;DHT22;43667;53.036;6.740;2023-07-31T15:06:29;20.40;99.90
57833;DHT22;43667;53.036;6.740;2023-07-31T15:08:54;20.40;99.90
57833;DHT22;43667;53.036;6.740;2023-07-31T15:11:20;20.30;99.90
57833;DHT22;43667;53.036;6.740;2023-07-31T15:13:45;20.30;99.90
57833;DHT22;43667;53.036;6.740;2023-07-31T15:16:11;20.20;99.90
57833;DHT22;43667;53.036;6.740;2023-07-31T15:18:37;20.20;99.90
57833;DHT22;43667;53.036;6.740;2023-07-31T15:21:03;20.10;99.90
57833;DHT22;43667;53.036;6.740;2023-07-31T15:23:29;20.10;99.90
57833;DHT22;43667;53.036;6.740;2023-07-31T15:25:55;20.20;99.90
57833;DHT22;43667;53.036;6.740;2023-07-31T15:28:20;20.20;99.90
57833;DHT22;43667;53.036;6.740;2023-07-31T15:30:46;20.20;99.90
57833;DHT22;43667;53.036;6.740;2023-07-31T15:33:12;20.20;99.90
57833;DHT22;43667;53.036;6.740;2023-07-31T15:35:37;20.10;99.90
57833;DHT22;43667;53.036;6.740;2023-07-31T15:38:03;20.10;99.90
57833;DHT22;43667;53.036;6.740;2023-07-31T15:40:28;20.10;99.90
57833;DHT22;43667;53.036;6.740;2023-07-31T15:42:54;20.10;99.90
57833;DHT22;43667;53.036;6.740;2023-07-31T15:45:20;20.10;99.90